createdAt,value
2023-02-15T00:00:39.108Z,64.45
2023-02-15T00:03:12.055Z,64.21
2023-02-15T00:05:45.051Z,64.46
2023-02-15T00:08:17.939Z,64.41
2023-02-15T00:10:52.299Z,64.46
2023-02-15T00:13:25.164Z,64.32
2023-02-15T00:16:03.196Z,64.46
2023-02-15T00:18:36.222Z,64.27
2023-02-15T00:21:11.750Z,64.29
2023-02-15T00:23:44.631Z,64.15
2023-02-15T00:26:19.375Z,64.07
2023-02-15T00:28:52.363Z,64.16
2023-02-15T00:31:25.375Z,64.04
2023-02-15T00:34:02.669Z,63.98
2023-02-15T00:36:36.016Z,64.10
2023-02-15T00:39:09.141Z,64.19
2023-02-15T00:41:43.848Z,63.90
2023-02-15T00:44:17.026Z,63.87
2023-02-15T00:46:49.963Z,64.14
2023-02-15T00:49:22.861Z,64.12
2023-02-15T00:51:55.859Z,64.06
2023-02-15T00:54:28.813Z,64.18
2023-02-15T00:57:03.321Z,64.46
2023-02-15T00:59:36.198Z,64.37
2023-02-15T01:02:09.175Z,64.35
2023-02-15T01:04:42.326Z,64.40
2023-02-15T01:07:15.434Z,64.29
2023-02-15T01:09:48.303Z,64.30
2023-02-15T01:12:22.706Z,64.03
2023-02-15T01:14:55.626Z,64.25
2023-02-15T01:17:28.612Z,64.17
2023-02-15T01:20:01.499Z,64.07
2023-02-15T01:22:34.660Z,63.94
2023-02-15T01:25:08.112Z,63.86
2023-02-15T01:27:42.568Z,63.52
2023-02-15T01:30:16.856Z,63.38
2023-02-15T01:32:49.817Z,63.16
2023-02-15T01:35:22.962Z,62.94
2023-02-15T01:37:56.328Z,62.89
2023-02-15T01:40:29.642Z,62.90
2023-02-15T01:43:04.119Z,62.65
2023-02-15T01:45:37.287Z,62.54
2023-02-15T01:48:22.412Z,62.69
2023-02-15T01:50:57.951Z,62.46
2023-02-15T01:53:38.032Z,62.65
2023-02-15T01:56:15.254Z,62.78
2023-02-15T01:58:51.327Z,62.88
2023-02-15T02:01:24.771Z,63.27
2023-02-15T02:04:04.441Z,63.82
2023-02-15T02:06:40.053Z,63.92
2023-02-15T02:09:13.801Z,64.24
2023-02-15T02:11:49.481Z,64.61
2023-02-15T02:14:25.651Z,64.63
2023-02-15T02:17:06.418Z,64.48
2023-02-15T02:20:12.006Z,65.03
2023-02-15T02:23:29.351Z,64.98
2023-02-15T02:26:49.181Z,64.79
2023-02-15T02:29:55.601Z,64.63
2023-02-15T02:32:47.821Z,65.06
2023-02-15T02:35:30.123Z,65.11
2023-02-15T02:38:10.737Z,65.23
2023-02-15T02:40:54.343Z,65.19
2023-02-15T02:43:34.641Z,64.97
2023-02-15T02:46:16.871Z,65.08
2023-02-15T02:48:51.487Z,65.14
2023-02-15T02:51:26.184Z,64.50
2023-02-15T02:54:03.432Z,64.97
2023-02-15T02:56:41.312Z,64.92
2023-02-15T02:59:20.621Z,64.83
2023-02-15T03:01:57.734Z,65.09
2023-02-15T03:04:34.119Z,64.89
2023-02-15T03:07:14.079Z,64.84
2023-02-15T03:09:50.421Z,64.95
2023-02-15T03:12:26.842Z,64.71
2023-02-15T03:15:05.270Z,64.99
2023-02-15T03:17:43.124Z,65.29
2023-02-15T03:20:19.487Z,65.05
2023-02-15T03:22:57.995Z,65.34
2023-02-15T03:25:35.874Z,65.06
2023-02-15T03:28:11.310Z,65.20
2023-02-15T03:30:47.964Z,65.21
2023-02-15T03:33:24.021Z,64.83
2023-02-15T03:36:03.923Z,65.18
2023-02-15T03:38:47.452Z,64.87
2023-02-15T03:41:22.970Z,65.00
2023-02-15T03:44:00.899Z,65.23
2023-02-15T03:46:39.538Z,65.13
2023-02-15T03:49:17.751Z,65.38
2023-02-15T03:51:54.304Z,65.15
2023-02-15T03:54:48.061Z,65.12
2023-02-15T03:57:40.786Z,64.68
2023-02-15T04:00:35.153Z,64.97
2023-02-15T04:03:26.639Z,64.91
2023-02-15T04:05:59.761Z,64.88
2023-02-15T04:08:47.000Z,64.81
2023-02-15T04:11:21.283Z,64.42
2023-02-15T04:13:57.714Z,64.57
2023-02-15T04:16:31.224Z,64.49
2023-02-15T04:19:22.023Z,64.29
2023-02-15T04:22:12.788Z,64.27
2023-02-15T04:25:04.170Z,64.19
2023-02-15T04:27:38.768Z,64.29
2023-02-15T04:30:14.621Z,64.30
2023-02-15T04:32:50.213Z,64.38
2023-02-15T04:35:23.524Z,64.44
2023-02-15T04:37:59.479Z,64.46
2023-02-15T04:40:33.434Z,64.45
2023-02-15T04:43:08.793Z,64.20
2023-02-15T04:45:41.666Z,64.36
2023-02-15T04:48:14.517Z,64.31
2023-02-15T04:50:47.490Z,64.48
2023-02-15T04:53:20.499Z,64.21
2023-02-15T04:55:53.421Z,64.39
2023-02-15T04:58:27.843Z,64.46
2023-02-15T05:01:01.524Z,64.39
2023-02-15T05:03:34.398Z,64.34
2023-02-15T05:06:07.807Z,64.38
2023-02-15T05:08:40.706Z,64.32
2023-02-15T05:11:13.644Z,64.12
2023-02-15T05:13:48.447Z,64.08
2023-02-15T05:16:24.460Z,64.26
2023-02-15T05:18:57.592Z,64.28
2023-02-15T05:21:30.691Z,64.00
2023-02-15T05:24:23.632Z,64.27
2023-02-15T05:27:13.937Z,64.01
2023-02-15T05:29:48.251Z,64.24
2023-02-15T05:32:21.474Z,63.93
2023-02-15T05:34:54.365Z,63.38
2023-02-15T05:37:30.227Z,63.46
2023-02-15T05:40:03.217Z,63.26
2023-02-15T05:42:36.089Z,62.90
2023-02-15T05:45:10.956Z,63.07
2023-02-15T05:47:43.946Z,62.86
2023-02-15T05:50:17.073Z,62.62
2023-02-15T05:52:52.282Z,62.21
2023-02-15T05:55:25.721Z,62.42
2023-02-15T05:57:59.116Z,62.39
2023-02-15T06:00:35.768Z,62.37
2023-02-15T06:03:10.434Z,62.43
2023-02-15T06:05:43.336Z,62.59
2023-02-15T06:08:16.472Z,62.17
2023-02-15T06:10:49.348Z,62.34
2023-02-15T06:13:24.749Z,62.10
2023-02-15T06:16:01.988Z,62.03
2023-02-15T06:18:35.207Z,62.24
2023-02-15T06:21:08.248Z,62.05
2023-02-15T06:23:41.226Z,62.11
2023-02-15T06:26:14.492Z,62.12
2023-02-15T06:28:47.572Z,61.58
2023-02-15T06:31:22.094Z,62.15
2023-02-15T06:34:01.918Z,61.80
2023-02-15T06:36:34.844Z,62.19
2023-02-15T06:39:07.870Z,62.27
2023-02-15T06:41:41.290Z,62.57
2023-02-15T06:44:14.123Z,62.71
2023-02-15T06:46:48.485Z,63.08
2023-02-15T06:49:24.474Z,63.46
2023-02-15T06:51:57.417Z,63.37
2023-02-15T06:54:30.910Z,63.58
2023-02-15T06:57:03.797Z,63.58
2023-02-15T06:59:36.729Z,64.01
2023-02-15T07:02:13.485Z,63.95
2023-02-15T07:04:46.408Z,63.86
2023-02-15T07:07:22.293Z,64.42
2023-02-15T07:09:55.218Z,64.69
2023-02-15T07:12:43.584Z,64.67
2023-02-15T07:15:18.454Z,64.87
2023-02-15T07:17:53.157Z,64.93
2023-02-15T07:20:26.084Z,65.46
2023-02-15T07:22:58.961Z,65.90
2023-02-15T07:25:32.301Z,65.91
2023-02-15T07:28:06.701Z,66.03
2023-02-15T07:30:39.700Z,65.31
2023-02-15T07:33:24.988Z,65.32
2023-02-15T07:36:00.209Z,65.22
2023-02-15T07:38:35.248Z,64.80
2023-02-15T07:41:10.049Z,64.50
2023-02-15T07:43:44.445Z,64.56
2023-02-15T07:46:18.933Z,64.26
2023-02-15T07:48:53.298Z,64.19
2023-02-15T07:51:26.437Z,64.41
2023-02-15T07:53:59.559Z,64.28
2023-02-15T07:56:34.714Z,64.37
2023-02-15T07:59:09.252Z,64.17
2023-02-15T08:01:42.542Z,64.17
2023-02-15T08:04:17.329Z,64.08
2023-02-15T08:06:53.887Z,63.97
2023-02-15T08:09:26.717Z,64.22
2023-02-15T08:11:59.606Z,64.03
2023-02-15T08:14:33.326Z,63.93
2023-02-15T08:17:06.236Z,63.53
2023-02-15T08:19:40.481Z,63.43
2023-02-15T08:22:15.743Z,63.20
2023-02-15T08:24:48.731Z,62.87
2023-02-15T08:27:27.747Z,62.91
2023-02-15T08:30:00.711Z,62.89
2023-02-15T08:32:33.728Z,62.76
2023-02-15T08:35:08.636Z,62.84
2023-02-15T08:37:41.704Z,62.67
2023-02-15T08:40:15.601Z,63.03
2023-02-15T08:42:48.639Z,63.36
2023-02-15T08:45:21.480Z,63.42
2023-02-15T08:47:55.799Z,63.50
2023-02-15T08:50:30.090Z,63.35
2023-02-15T08:53:03.094Z,63.18
2023-02-15T08:55:36.144Z,63.42
2023-02-15T08:58:09.089Z,63.28
2023-02-15T09:00:42.031Z,63.29
2023-02-15T09:03:14.946Z,63.17
2023-02-15T09:05:49.275Z,63.38
2023-02-15T09:08:22.387Z,63.02
2023-02-15T09:10:55.319Z,62.80
2023-02-15T09:13:28.212Z,63.00
2023-02-15T09:16:02.448Z,62.80
2023-02-15T09:18:38.446Z,62.91
2023-02-15T09:21:15.440Z,62.83
2023-02-15T09:23:50.426Z,63.24
2023-02-15T09:26:25.563Z,63.11
2023-02-15T09:28:59.834Z,63.16
2023-02-15T09:31:34.654Z,63.10
2023-02-15T09:34:07.615Z,63.27
2023-02-15T09:36:43.147Z,63.42
2023-02-15T09:39:18.315Z,63.21
2023-02-15T09:42:27.360Z,63.09
2023-02-15T09:45:15.519Z,63.23
2023-02-15T09:48:05.436Z,63.10
2023-02-15T09:50:51.498Z,63.05
2023-02-15T09:53:49.008Z,63.13
2023-02-15T09:56:29.049Z,63.29
2023-02-15T09:59:10.441Z,63.45
2023-02-15T10:01:57.064Z,63.66
2023-02-15T10:04:45.666Z,63.47
2023-02-15T10:07:29.605Z,63.60
2023-02-15T10:10:16.519Z,63.76
2023-02-15T10:13:02.958Z,63.79
2023-02-15T10:15:53.012Z,63.60
2023-02-15T10:18:51.571Z,63.77
2023-02-15T10:21:41.900Z,63.72
2023-02-15T10:24:29.455Z,63.83
2023-02-15T10:27:13.361Z,63.87
2023-02-15T10:29:57.297Z,63.89
2023-02-15T10:32:35.017Z,64.08
2023-02-15T10:35:18.141Z,64.13
2023-02-15T10:38:04.685Z,64.09
2023-02-15T10:40:48.762Z,63.76
2023-02-15T10:43:59.741Z,64.11
2023-02-15T10:46:55.780Z,64.07
2023-02-15T10:49:45.969Z,64.12
2023-02-15T10:52:31.958Z,64.38
2023-02-15T10:55:16.932Z,64.09
2023-02-15T10:58:04.590Z,64.20
2023-02-15T11:00:44.959Z,64.44
2023-02-15T11:03:32.352Z,64.21
2023-02-15T11:06:11.323Z,64.65
2023-02-15T11:08:48.007Z,64.56
2023-02-15T11:11:25.709Z,64.95
2023-02-15T11:14:03.778Z,64.95
2023-02-15T11:16:42.954Z,65.19
2023-02-15T11:19:21.687Z,65.06
2023-02-15T11:22:00.253Z,65.27
2023-02-15T11:24:43.329Z,65.58
2023-02-15T11:27:22.568Z,65.31
2023-02-15T11:30:01.673Z,65.29
2023-02-15T11:32:39.666Z,65.85
2023-02-15T11:35:22.951Z,65.91
2023-02-15T11:38:01.966Z,65.55
2023-02-15T11:40:37.782Z,65.41
2023-02-15T11:43:19.010Z,65.52
2023-02-15T11:45:52.124Z,65.18
2023-02-15T11:48:26.556Z,64.96
2023-02-15T11:51:00.435Z,65.10
2023-02-15T11:53:37.958Z,65.48
2023-02-15T11:56:16.604Z,65.32
2023-02-15T11:58:55.165Z,65.08
2023-02-15T12:01:34.606Z,65.53
2023-02-15T12:04:15.719Z,65.67
2023-02-15T12:07:02.183Z,65.67
2023-02-15T12:09:38.596Z,65.72
2023-02-15T12:12:26.656Z,65.82
2023-02-15T12:15:00.806Z,65.88
2023-02-15T12:17:36.077Z,65.97
2023-02-15T12:20:30.608Z,65.79
2023-02-15T12:23:06.394Z,65.97
2023-02-15T12:25:43.519Z,65.08
2023-02-15T12:28:27.771Z,65.37
2023-02-15T12:31:02.241Z,65.26
2023-02-15T12:33:38.572Z,65.66
2023-02-15T12:36:18.177Z,65.53
2023-02-15T12:39:20.497Z,65.41
2023-02-15T12:42:06.291Z,65.49
2023-02-15T12:44:39.215Z,65.39
2023-02-15T12:47:21.622Z,65.77
2023-02-15T12:50:24.464Z,65.01
2023-02-15T12:53:09.361Z,65.62
2023-02-15T12:55:52.881Z,65.27
2023-02-15T12:58:27.278Z,65.17
2023-02-15T13:01:13.877Z,65.46
2023-02-15T13:04:02.366Z,65.58
2023-02-15T13:06:38.199Z,65.88
2023-02-15T13:09:19.967Z,65.59
2023-02-15T13:11:53.079Z,65.30
2023-02-15T13:14:32.608Z,65.81
2023-02-15T13:17:08.781Z,65.31
2023-02-15T13:19:45.517Z,65.47
2023-02-15T13:22:23.931Z,65.26
2023-02-15T13:25:00.693Z,65.96
2023-02-15T13:27:38.785Z,65.37
2023-02-15T13:30:27.206Z,65.17
2023-02-15T13:33:04.306Z,65.47
2023-02-15T13:35:45.545Z,65.34
2023-02-15T13:38:42.018Z,65.78
2023-02-15T13:41:21.910Z,65.62
2023-02-15T13:44:01.733Z,65.03
2023-02-15T13:46:51.463Z,65.47
2023-02-15T13:49:40.783Z,65.16
2023-02-15T13:52:22.008Z,65.79
2023-02-15T13:55:13.595Z,65.01
2023-02-15T13:58:21.001Z,65.36
2023-02-15T14:01:05.585Z,64.87
2023-02-15T14:04:10.466Z,64.70
2023-02-15T14:06:56.557Z,64.69
2023-02-15T14:09:46.812Z,65.04
2023-02-15T14:12:36.300Z,64.63
2023-02-15T14:15:30.860Z,64.86
2023-02-15T14:18:16.947Z,65.22
2023-02-15T14:21:01.516Z,64.87
2023-02-15T14:23:45.917Z,64.54
2023-02-15T14:26:28.958Z,64.62
2023-02-15T14:29:16.151Z,64.82
2023-02-15T14:31:56.726Z,64.87
2023-02-15T14:34:39.083Z,64.56
2023-02-15T14:37:14.181Z,64.56
2023-02-15T14:40:11.493Z,64.60
2023-02-15T14:42:53.542Z,64.60
2023-02-15T14:45:33.252Z,64.67
2023-02-15T14:48:16.344Z,64.80
2023-02-15T14:50:50.275Z,64.33
2023-02-15T14:53:47.300Z,64.74
2023-02-15T14:56:25.964Z,64.97
2023-02-15T14:59:02.474Z,65.16
2023-02-15T15:01:38.202Z,64.96
2023-02-15T15:04:16.507Z,64.87
2023-02-15T15:07:02.879Z,64.94
2023-02-15T15:09:39.417Z,64.61
2023-02-15T15:12:38.319Z,64.68
2023-02-15T15:15:15.948Z,64.60
2023-02-15T15:18:00.951Z,64.54
2023-02-15T15:20:51.658Z,64.59
2023-02-15T15:23:47.272Z,64.41
2023-02-15T15:26:34.369Z,64.58
2023-02-15T15:29:08.611Z,64.45
2023-02-15T15:31:46.729Z,64.57
2023-02-15T15:35:05.552Z,64.94
2023-02-15T15:38:07.433Z,64.88
2023-02-15T15:40:59.388Z,65.02
2023-02-15T15:43:52.948Z,64.87
2023-02-15T15:46:56.978Z,64.53
2023-02-15T15:49:33.565Z,64.69
2023-02-15T15:52:16.169Z,64.43
2023-02-15T15:54:55.914Z,64.60
2023-02-15T15:57:32.801Z,64.50
2023-02-15T16:00:25.069Z,64.50
2023-02-15T16:02:58.057Z,64.66
2023-02-15T16:05:38.357Z,64.28
2023-02-15T16:08:11.234Z,64.88
2023-02-15T16:10:45.716Z,64.57
2023-02-15T16:13:18.672Z,64.89
2023-02-15T16:15:56.065Z,64.87
2023-02-15T16:18:29.831Z,64.80
2023-02-15T16:21:03.991Z,64.93
2023-02-15T16:23:58.640Z,64.71
2023-02-15T16:26:56.920Z,64.98
2023-02-15T16:29:31.435Z,64.86
2023-02-15T16:32:07.767Z,64.49
2023-02-15T16:34:40.786Z,65.14
2023-02-15T16:37:22.880Z,65.04
2023-02-15T16:39:56.849Z,64.74
2023-02-15T16:42:31.228Z,64.80
2023-02-15T16:45:09.883Z,64.73
2023-02-15T16:47:45.242Z,64.67
2023-02-15T16:50:21.121Z,65.08
2023-02-15T16:52:55.143Z,64.93
2023-02-15T16:55:30.735Z,64.99
2023-02-15T16:58:08.602Z,64.40
2023-02-15T17:00:42.473Z,64.45
2023-02-15T17:03:26.176Z,64.88
2023-02-15T17:06:00.987Z,64.64
2023-02-15T17:08:35.844Z,64.09
2023-02-15T17:11:16.252Z,64.29
2023-02-15T17:14:17.755Z,64.49
2023-02-15T17:16:55.542Z,64.32
2023-02-15T17:19:31.112Z,64.74
2023-02-15T17:22:08.308Z,64.06
2023-02-15T17:24:43.794Z,64.14
2023-02-15T17:27:21.066Z,64.39
2023-02-15T17:30:00.003Z,64.52
2023-02-15T17:32:37.969Z,64.27
2023-02-15T17:35:20.588Z,64.34
2023-02-15T17:38:05.041Z,64.91
2023-02-15T17:40:39.045Z,64.68
2023-02-15T17:43:12.955Z,64.77
2023-02-15T17:45:51.794Z,64.78
2023-02-15T17:48:34.993Z,64.74
2023-02-15T17:51:14.350Z,65.09
2023-02-15T17:54:10.694Z,64.85
2023-02-15T17:56:43.336Z,65.13
2023-02-15T17:59:16.410Z,65.34
2023-02-15T18:02:09.900Z,65.17
2023-02-15T18:05:00.679Z,64.93
2023-02-15T18:07:50.852Z,65.02
2023-02-15T18:10:40.965Z,65.13
2023-02-15T18:13:14.378Z,65.41
2023-02-15T18:15:47.323Z,65.44
2023-02-15T18:18:25.272Z,65.99
2023-02-15T18:20:58.297Z,65.50
2023-02-15T18:23:31.303Z,65.81
2023-02-15T18:26:04.246Z,65.92
2023-02-15T18:28:37.212Z,65.66
2023-02-15T18:31:10.184Z,66.07
2023-02-15T18:33:49.275Z,66.21
2023-02-15T18:36:24.878Z,65.95
2023-02-15T18:38:58.004Z,66.18
2023-02-15T18:41:31.101Z,66.23
2023-02-15T18:44:03.981Z,66.52
2023-02-15T18:46:36.855Z,66.22
2023-02-15T18:49:11.166Z,66.15
2023-02-15T18:51:44.692Z,66.46
2023-02-15T18:54:21.161Z,66.52
2023-02-15T18:56:58.073Z,66.60
2023-02-15T18:59:32.567Z,66.62
2023-02-15T19:02:10.603Z,66.69
2023-02-15T19:04:45.580Z,66.60
2023-02-15T19:07:21.373Z,66.96
2023-02-15T19:09:58.751Z,66.89
2023-02-15T19:12:32.036Z,67.25
2023-02-15T19:15:05.610Z,67.13
2023-02-15T19:17:38.539Z,67.08
2023-02-15T19:20:18.868Z,67.25
2023-02-15T19:22:55.014Z,67.37
2023-02-15T19:25:30.721Z,67.35
2023-02-15T19:28:10.106Z,67.64
2023-02-15T19:30:43.058Z,67.42
2023-02-15T19:33:18.876Z,67.75
2023-02-15T19:35:57.401Z,67.43
2023-02-15T19:38:33.864Z,67.75
2023-02-15T19:41:09.456Z,67.62
2023-02-15T19:43:42.289Z,67.67
2023-02-15T19:46:19.196Z,67.79
2023-02-15T19:48:53.130Z,67.64
2023-02-15T19:51:28.389Z,67.61
2023-02-15T19:54:01.699Z,67.73
2023-02-15T19:56:34.813Z,67.63
2023-02-15T19:59:07.732Z,67.83
2023-02-15T20:01:41.658Z,67.72
2023-02-15T20:04:15.426Z,67.54
2023-02-15T20:06:52.300Z,67.57
2023-02-15T20:09:28.026Z,67.34
2023-02-15T20:12:01.376Z,67.22
2023-02-15T20:14:34.276Z,67.24
2023-02-15T20:17:07.221Z,67.58
2023-02-15T20:19:41.741Z,67.23
2023-02-15T20:22:23.466Z,67.35
2023-02-15T20:24:57.434Z,67.51
2023-02-15T20:27:30.386Z,67.40
2023-02-15T20:30:03.515Z,67.40
2023-02-15T20:32:36.553Z,67.43
2023-02-15T20:35:14.166Z,67.45
2023-02-15T20:37:53.538Z,67.56
2023-02-15T20:40:29.542Z,67.26
2023-02-15T20:43:03.023Z,67.20
2023-02-15T20:45:36.183Z,67.24
2023-02-15T20:48:09.186Z,67.07
2023-02-15T20:50:42.089Z,67.06
2023-02-15T20:53:16.472Z,67.05
2023-02-15T20:55:49.649Z,66.90
2023-02-15T20:58:25.201Z,67.25
2023-02-15T21:00:59.765Z,67.22
2023-02-15T21:03:32.990Z,67.26
2023-02-15T21:06:06.694Z,67.16
2023-02-15T21:08:41.294Z,67.31
2023-02-15T21:11:21.019Z,67.37
2023-02-15T21:13:54.118Z,67.37
2023-02-15T21:16:27.108Z,67.54
2023-02-15T21:19:00.179Z,66.96
2023-02-15T21:21:33.136Z,67.21
2023-02-15T21:24:08.168Z,66.98
2023-02-15T21:26:44.864Z,67.19
2023-02-15T21:29:21.406Z,66.97
2023-02-15T21:31:54.621Z,67.38
2023-02-15T21:34:27.763Z,67.21
2023-02-15T21:37:00.695Z,67.35
2023-02-15T21:39:37.619Z,67.71
2023-02-15T21:42:29.086Z,67.37
2023-02-15T21:45:19.820Z,67.46
2023-02-15T21:47:52.630Z,67.47
2023-02-15T21:50:43.849Z,67.39
2023-02-15T21:53:23.017Z,68.06
2023-02-15T21:55:59.217Z,67.60
2023-02-15T21:58:33.872Z,67.98
2023-02-15T22:01:07.994Z,67.89
2023-02-15T22:03:41.266Z,67.69
2023-02-15T22:06:14.959Z,67.76
2023-02-15T22:08:49.030Z,68.11
2023-02-15T22:11:23.559Z,67.67
2023-02-15T22:13:58.045Z,67.85
2023-02-15T22:16:31.568Z,67.52
2023-02-15T22:19:05.039Z,67.90
2023-02-15T22:21:37.946Z,67.87
2023-02-15T22:24:10.791Z,67.97
2023-02-15T22:26:45.341Z,67.92
2023-02-15T22:29:18.853Z,68.08
2023-02-15T22:31:51.830Z,67.86
2023-02-15T22:34:28.137Z,68.12
2023-02-15T22:37:01.112Z,67.88
2023-02-15T22:39:34.311Z,67.98
2023-02-15T22:42:20.996Z,68.38
2023-02-15T22:44:56.382Z,67.93
2023-02-15T22:47:32.396Z,67.88
2023-02-15T22:50:15.264Z,67.77
2023-02-15T22:52:48.267Z,67.36
2023-02-15T22:55:24.201Z,67.65
2023-02-15T22:57:59.654Z,67.73
2023-02-15T23:00:36.410Z,67.91
2023-02-15T23:03:16.810Z,67.62
2023-02-15T23:05:50.058Z,68.07
2023-02-15T23:08:23.058Z,67.74
2023-02-15T23:10:57.924Z,67.93
2023-02-15T23:13:34.369Z,67.97
2023-02-15T23:16:13.445Z,67.84
2023-02-15T23:18:48.387Z,67.87
2023-02-15T23:21:23.726Z,67.82
2023-02-15T23:23:59.198Z,67.69
2023-02-15T23:26:32.682Z,67.92
2023-02-15T23:29:14.660Z,67.86
2023-02-15T23:31:50.469Z,67.81
2023-02-15T23:34:26.982Z,67.64
2023-02-15T23:36:59.907Z,68.06
2023-02-15T23:39:50.366Z,67.51
2023-02-15T23:42:27.619Z,67.70
2023-02-15T23:45:03.518Z,67.63
2023-02-15T23:47:54.319Z,67.55
2023-02-15T23:50:29.407Z,67.96
2023-02-15T23:53:02.403Z,67.68
2023-02-15T23:55:38.054Z,67.56
2023-02-15T23:58:15.997Z,67.78
